sensor_id;sensor_type;location;lat;lon;timestamp;pressure;altitude;pressure_sealevel;temperature;humidity
59168;BME280;70412;55.048;73.268;2024-03-07T00:02:49;100259.19;;;-16.38;100.00
59168;BME280;70412;55.048;73.268;2024-03-07T00:05:52;100254.66;;;-16.47;100.00
59168;BME280;70412;55.048;73.268;2024-03-07T00:10:19;100262.09;;;-16.50;100.00
59168;BME280;70412;55.048;73.268;2024-03-07T00:13:37;100251.75;;;-16.59;100.00
59168;BME280;70412;55.048;73.268;2024-03-07T00:16:39;100235.31;;;-16.73;100.00
59168;BME280;70412;55.048;73.268;2024-03-07T00:19:42;100266.84;;;-16.58;100.00
59168;BME280;70412;55.048;73.268;2024-03-07T00:22:46;100260.94;;;-16.60;100.00
59168;BME280;70412;55.048;73.268;2024-03-07T00:25:48;100259.94;;;-16.63;100.00
59168;BME280;70412;55.048;73.268;2024-03-07T00:32:57;100257.56;;;-16.60;100.00
59168;BME280;70412;55.048;73.268;2024-03-07T00:36:00;100233.63;;;-16.74;100.00
59168;BME280;70412;55.048;73.268;2024-03-07T00:39:34;100220.16;;;-16.76;100.00
59168;BME280;70412;55.048;73.268;2024-03-07T00:42:37;100268.66;;;-16.54;100.00
59168;BME280;70412;55.048;73.268;2024-03-07T00:45:40;100262.78;;;-16.54;100.00
59168;BME280;70412;55.048;73.268;2024-03-07T00:49:21;100269.50;;;-16.53;100.00
59168;BME280;70412;55.048;73.268;2024-03-07T00:52:24;100208.44;;;-16.98;100.00
59168;BME280;70412;55.048;73.268;2024-03-07T00:55:32;100269.41;;;-16.56;100.00
59168;BME280;70412;55.048;73.268;2024-03-07T00:59:11;100270.38;;;-16.53;100.00
59168;BME280;70412;55.048;73.268;2024-03-07T01:02:13;100269.50;;;-16.53;100.00
59168;BME280;70412;55.048;73.268;2024-03-07T01:05:29;100266.84;;;-16.58;100.00
59168;BME280;70412;55.048;73.268;2024-03-07T01:12:57;100267.25;;;-16.69;100.00
59168;BME280;70412;55.048;73.268;2024-03-07T01:16:03;100275.69;;;-16.67;100.00
59168;BME280;70412;55.048;73.268;2024-03-07T01:19:07;100255.72;;;-16.87;100.00
59168;BME280;70412;55.048;73.268;2024-03-07T01:22:10;100263.13;;;-16.90;100.00
59168;BME280;70412;55.048;73.268;2024-03-07T01:25:21;100292.56;;;-16.86;100.00
59168;BME280;70412;55.048;73.268;2024-03-07T01:28:24;100295.47;;;-16.96;100.00
59168;BME280;70412;55.048;73.268;2024-03-07T01:31:26;100296.91;;;-17.02;100.00
59168;BME280;70412;55.048;73.268;2024-03-07T01:34:29;100301.38;;;-17.16;100.00
59168;BME280;70412;55.048;73.268;2024-03-07T01:37:31;100297.16;;;-17.17;100.00
59168;BME280;70412;55.048;73.268;2024-03-07T01:40:34;100255.44;;;-17.57;100.00
59168;BME280;70412;55.048;73.268;2024-03-07T01:43:36;100307.56;;;-17.29;100.00
59168;BME280;70412;55.048;73.268;2024-03-07T01:46:39;100301.31;;;-17.38;100.00
59168;BME280;70412;55.048;73.268;2024-03-07T01:49:47;100288.94;;;-17.55;100.00
59168;BME280;70412;55.048;73.268;2024-03-07T01:52:50;100307.91;;;-17.40;100.00
59168;BME280;70412;55.048;73.268;2024-03-07T01:55:54;100320.50;;;-17.39;100.00
59168;BME280;70412;55.048;73.268;2024-03-07T01:58:56;100317.13;;;-17.39;100.00
59168;BME280;70412;55.048;73.268;2024-03-07T02:02:01;100321.59;;;-17.32;100.00
59168;BME280;70412;55.048;73.268;2024-03-07T02:05:04;100319.63;;;-17.39;100.00
59168;BME280;70412;55.048;73.268;2024-03-07T02:08:08;100316.16;;;-17.43;100.00
59168;BME280;70412;55.048;73.268;2024-03-07T02:11:10;100317.50;;;-17.30;100.00
59168;BME280;70412;55.048;73.268;2024-03-07T02:14:17;100323.56;;;-17.25;100.00
59168;BME280;70412;55.048;73.268;2024-03-07T02:17:19;100333.97;;;-17.16;100.00
59168;BME280;70412;55.048;73.268;2024-03-07T02:20:22;100299.03;;;-17.32;100.00
59168;BME280;70412;55.048;73.268;2024-03-07T02:23:25;100344.50;;;-17.04;100.00
59168;BME280;70412;55.048;73.268;2024-03-07T02:26:29;100344.88;;;-16.95;100.00
59168;BME280;70412;55.048;73.268;2024-03-07T02:29:32;100338.63;;;-16.84;100.00
59168;BME280;70412;55.048;73.268;2024-03-07T02:32:35;100334.72;;;-16.77;100.00
59168;BME280;70412;55.048;73.268;2024-03-07T02:35:39;100348.13;;;-16.54;100.00
59168;BME280;70412;55.048;73.268;2024-03-07T02:38:41;100347.13;;;-16.37;100.00
59168;BME280;70412;55.048;73.268;2024-03-07T02:41:45;100322.13;;;-16.34;100.00
59168;BME280;70412;55.048;73.268;2024-03-07T02:44:47;100350.44;;;-15.93;100.00
59168;BME280;70412;55.048;73.268;2024-03-07T02:47:50;100356.13;;;-15.75;100.00
59168;BME280;70412;55.048;73.268;2024-03-07T02:50:53;100352.59;;;-15.56;100.00
59168;BME280;70412;55.048;73.268;2024-03-07T02:53:57;100333.19;;;-15.60;100.00
59168;BME280;70412;55.048;73.268;2024-03-07T02:57:00;100359.69;;;-15.19;100.00
59168;BME280;70412;55.048;73.268;2024-03-07T03:00:04;100366.19;;;-15.00;100.00
59168;BME280;70412;55.048;73.268;2024-03-07T03:03:28;100374.00;;;-14.92;100.00
59168;BME280;70412;55.048;73.268;2024-03-07T03:06:33;100364.53;;;-14.74;100.00
59168;BME280;70412;55.048;73.268;2024-03-07T03:09:36;100358.91;;;-14.65;100.00
59168;BME280;70412;55.048;73.268;2024-03-07T03:12:42;100359.66;;;-14.43;100.00
59168;BME280;70412;55.048;73.268;2024-03-07T03:15:44;100361.34;;;-14.13;100.00
59168;BME280;70412;55.048;73.268;2024-03-07T03:18:47;100365.81;;;-13.76;100.00
59168;BME280;70412;55.048;73.268;2024-03-07T03:21:50;100360.44;;;-13.57;100.00
59168;BME280;70412;55.048;73.268;2024-03-07T03:24:53;100373.41;;;-13.43;100.00
59168;BME280;70412;55.048;73.268;2024-03-07T03:27:57;100371.56;;;-13.50;97.87
59168;BME280;70412;55.048;73.268;2024-03-07T03:31:00;100384.50;;;-13.38;96.45
59168;BME280;70412;55.048;73.268;2024-03-07T03:34:05;100375.66;;;-13.24;95.45
59168;BME280;70412;55.048;73.268;2024-03-07T03:37:08;100354.03;;;-13.12;94.97
59168;BME280;70412;55.048;73.268;2024-03-07T03:40:22;100373.25;;;-12.86;91.63
59168;BME280;70412;55.048;73.268;2024-03-07T03:43:26;100379.19;;;-12.84;90.24
59168;BME280;70412;55.048;73.268;2024-03-07T03:46:28;100385.47;;;-12.67;89.73
59168;BME280;70412;55.048;73.268;2024-03-07T03:49:30;100366.81;;;-12.72;89.09
59168;BME280;70412;55.048;73.268;2024-03-07T03:52:45;100379.66;;;-12.63;87.89
59168;BME280;70412;55.048;73.268;2024-03-07T03:55:48;100384.19;;;-12.86;86.51
59168;BME280;70412;55.048;73.268;2024-03-07T03:58:51;100380.03;;;-12.83;87.26
59168;BME280;70412;55.048;73.268;2024-03-07T04:01:53;100380.31;;;-12.71;86.85
59168;BME280;70412;55.048;73.268;2024-03-07T04:04:55;100386.25;;;-12.69;87.03
59168;BME280;70412;55.048;73.268;2024-03-07T04:08:10;100314.47;;;-13.13;86.49
59168;BME280;70412;55.048;73.268;2024-03-07T04:11:13;100375.44;;;-12.64;85.93
59168;BME280;70412;55.048;73.268;2024-03-07T04:14:16;100371.97;;;-12.67;85.57
59168;BME280;70412;55.048;73.268;2024-03-07T04:17:18;100387.25;;;-12.63;85.55
59168;BME280;70412;55.048;73.268;2024-03-07T04:20:23;100392.94;;;-12.71;85.06
59168;BME280;70412;55.048;73.268;2024-03-07T04:23:27;100390.50;;;-12.67;85.24
59168;BME280;70412;55.048;73.268;2024-03-07T04:26:29;100401.31;;;-12.38;85.76
59168;BME280;70412;55.048;73.268;2024-03-07T04:29:35;100393.84;;;-11.96;85.54
59168;BME280;70412;55.048;73.268;2024-03-07T04:32:40;100409.16;;;-11.49;84.86
59168;BME280;70412;55.048;73.268;2024-03-07T04:35:44;100408.34;;;-11.48;82.72
59168;BME280;70412;55.048;73.268;2024-03-07T04:38:46;100402.16;;;-11.18;83.18
59168;BME280;70412;55.048;73.268;2024-03-07T04:41:49;100416.09;;;-10.93;82.25
59168;BME280;70412;55.048;73.268;2024-03-07T04:44:52;100404.97;;;-10.55;80.65
59168;BME280;70412;55.048;73.268;2024-03-07T04:47:54;100408.25;;;-10.59;76.11
59168;BME280;70412;55.048;73.268;2024-03-07T04:50:57;100406.84;;;-10.43;75.00
59168;BME280;70412;55.048;73.268;2024-03-07T04:54:12;100410.50;;;-10.26;72.94
59168;BME280;70412;55.048;73.268;2024-03-07T04:57:15;100395.38;;;-10.20;72.26
59168;BME280;70412;55.048;73.268;2024-03-07T05:00:17;100403.63;;;-10.33;70.78
59168;BME280;70412;55.048;73.268;2024-03-07T05:03:21;100405.75;;;-10.04;69.72
59168;BME280;70412;55.048;73.268;2024-03-07T05:06:23;100399.94;;;-9.96;70.24
59168;BME280;70412;55.048;73.268;2024-03-07T05:09:26;100414.00;;;-9.57;69.69
59168;BME280;70412;55.048;73.268;2024-03-07T05:12:33;100415.06;;;-9.40;67.71
59168;BME280;70412;55.048;73.268;2024-03-07T05:15:35;100418.66;;;-9.23;67.52
59168;BME280;70412;55.048;73.268;2024-03-07T05:18:38;100429.06;;;-9.00;67.62
59168;BME280;70412;55.048;73.268;2024-03-07T05:21:41;100428.25;;;-8.94;65.32
59168;BME280;70412;55.048;73.268;2024-03-07T05:24:47;100429.53;;;-8.51;66.25
59168;BME280;70412;55.048;73.268;2024-03-07T05:27:52;100419.78;;;-7.96;65.69
59168;BME280;70412;55.048;73.268;2024-03-07T05:30:56;100431.88;;;-7.61;64.74
59168;BME280;70412;55.048;73.268;2024-03-07T05:33:59;100421.66;;;-7.64;60.31
59168;BME280;70412;55.048;73.268;2024-03-07T05:37:02;100427.50;;;-7.85;60.90
59168;BME280;70412;55.048;73.268;2024-03-07T05:40:05;100435.81;;;-8.09;59.65
59168;BME280;70412;55.048;73.268;2024-03-07T05:43:09;100437.38;;;-8.27;60.11
59168;BME280;70412;55.048;73.268;2024-03-07T05:46:12;100445.00;;;-8.28;59.94
59168;BME280;70412;55.048;73.268;2024-03-07T05:49:15;100452.22;;;-8.72;60.42
59168;BME280;70412;55.048;73.268;2024-03-07T05:52:20;100450.38;;;-8.89;60.01
59168;BME280;70412;55.048;73.268;2024-03-07T05:55:23;100450.28;;;-8.95;59.88
59168;BME280;70412;55.048;73.268;2024-03-07T05:58:26;100432.59;;;-8.85;60.94
59168;BME280;70412;55.048;73.268;2024-03-07T06:01:28;100449.69;;;-8.72;59.36
59168;BME280;70412;55.048;73.268;2024-03-07T06:04:32;100422.59;;;-8.70;60.92
59168;BME280;70412;55.048;73.268;2024-03-07T06:07:36;100436.91;;;-8.78;59.92
59168;BME280;70412;55.048;73.268;2024-03-07T06:10:39;100447.94;;;-8.73;60.77
59168;BME280;70412;55.048;73.268;2024-03-07T06:13:43;100444.00;;;-8.45;61.14
59168;BME280;70412;55.048;73.268;2024-03-07T06:16:46;100440.84;;;-8.15;60.51
59168;BME280;70412;55.048;73.268;2024-03-07T06:19:48;100439.63;;;-8.57;58.97
59168;BME280;70412;55.048;73.268;2024-03-07T06:22:51;100437.91;;;-8.60;60.08
59168;BME280;70412;55.048;73.268;2024-03-07T06:25:57;100438.91;;;-8.44;59.72
59168;BME280;70412;55.048;73.268;2024-03-07T06:29:01;100442.38;;;-8.39;60.17
59168;BME280;70412;55.048;73.268;2024-03-07T06:32:06;100446.78;;;-8.16;60.84
59168;BME280;70412;55.048;73.268;2024-03-07T06:35:09;100447.59;;;-8.22;59.78
59168;BME280;70412;55.048;73.268;2024-03-07T06:38:15;100446.84;;;-8.07;60.00
59168;BME280;70412;55.048;73.268;2024-03-07T06:41:17;100439.28;;;-7.97;59.90
59168;BME280;70412;55.048;73.268;2024-03-07T06:44:20;100440.88;;;-8.11;58.83
59168;BME280;70412;55.048;73.268;2024-03-07T06:47:25;100442.75;;;-7.88;59.48
59168;BME280;70412;55.048;73.268;2024-03-07T06:50:27;100450.56;;;-7.56;60.10
59168;BME280;70412;55.048;73.268;2024-03-07T06:53:31;100450.66;;;-7.43;59.03
59168;BME280;70412;55.048;73.268;2024-03-07T06:56:33;100446.31;;;-7.56;58.25
59168;BME280;70412;55.048;73.268;2024-03-07T06:59:36;100454.09;;;-7.31;59.05
59168;BME280;70412;55.048;73.268;2024-03-07T07:02:39;100455.94;;;-7.04;58.62
59168;BME280;70412;55.048;73.268;2024-03-07T07:05:42;100454.25;;;-6.72;57.68
59168;BME280;70412;55.048;73.268;2024-03-07T07:08:45;100447.50;;;-6.58;57.01
59168;BME280;70412;55.048;73.268;2024-03-07T07:12:06;100452.56;;;-6.76;56.49
59168;BME280;70412;55.048;73.268;2024-03-07T07:15:11;100447.41;;;-6.88;56.06
59168;BME280;70412;55.048;73.268;2024-03-07T07:18:14;100439.00;;;-6.69;56.17
59168;BME280;70412;55.048;73.268;2024-03-07T07:21:16;100449.16;;;-6.81;55.28
59168;BME280;70412;55.048;73.268;2024-03-07T07:24:20;100438.91;;;-7.09;55.45
59168;BME280;70412;55.048;73.268;2024-03-07T07:27:25;100455.09;;;-7.03;56.96
59168;BME280;70412;55.048;73.268;2024-03-07T07:30:29;100452.56;;;-6.76;56.70
59168;BME280;70412;55.048;73.268;2024-03-07T07:33:31;100433.00;;;-6.82;55.92
59168;BME280;70412;55.048;73.268;2024-03-07T07:36:34;100446.47;;;-7.33;55.52
59168;BME280;70412;55.048;73.268;2024-03-07T07:39:37;100454.03;;;-7.42;56.45
59168;BME280;70412;55.048;73.268;2024-03-07T07:42:42;100459.09;;;-7.51;56.67
59168;BME280;70412;55.048;73.268;2024-03-07T07:45:45;100454.03;;;-7.42;57.58
59168;BME280;70412;55.048;73.268;2024-03-07T07:48:47;100454.06;;;-7.39;57.40
59168;BME280;70412;55.048;73.268;2024-03-07T07:51:50;100451.53;;;-7.36;57.38
59168;BME280;70412;55.048;73.268;2024-03-07T07:54:52;100449.78;;;-7.45;57.04
59168;BME280;70412;55.048;73.268;2024-03-07T07:57:56;100458.34;;;-7.33;57.13
59168;BME280;70412;55.048;73.268;2024-03-07T08:00:59;100460.13;;;-7.10;56.74
59168;BME280;70412;55.048;73.268;2024-03-07T08:04:02;100461.03;;;-6.98;56.24
59168;BME280;70412;55.048;73.268;2024-03-07T08:07:04;100452.47;;;-7.20;56.04
59168;BME280;70412;55.048;73.268;2024-03-07T08:10:07;100452.31;;;-7.52;56.86
59168;BME280;70412;55.048;73.268;2024-03-07T08:13:09;100452.44;;;-7.23;56.79
59168;BME280;70412;55.048;73.268;2024-03-07T08:16:12;100456.81;;;-6.87;55.93
59168;BME280;70412;55.048;73.268;2024-03-07T08:19:15;100450.06;;;-6.47;56.26
59168;BME280;70412;55.048;73.268;2024-03-07T08:22:18;100451.81;;;-6.03;55.33
59168;BME280;70412;55.048;73.268;2024-03-07T08:25:24;100445.81;;;-6.27;54.85
59168;BME280;70412;55.048;73.268;2024-03-07T08:28:38;100461.09;;;-6.65;53.91
59168;BME280;70412;55.048;73.268;2024-03-07T08:31:41;100436.41;;;-6.72;54.96
59168;BME280;70412;55.048;73.268;2024-03-07T08:34:47;100450.91;;;-6.40;54.99
59168;BME280;70412;55.048;73.268;2024-03-07T08:37:51;100459.44;;;-6.35;54.80
59168;BME280;70412;55.048;73.268;2024-03-07T08:40:57;100455.16;;;-6.42;54.52
59168;BME280;70412;55.048;73.268;2024-03-07T08:43:59;100456.03;;;-6.50;54.05
59168;BME280;70412;55.048;73.268;2024-03-07T08:47:02;100458.59;;;-6.36;54.25
59168;BME280;70412;55.048;73.268;2024-03-07T08:50:05;100448.38;;;-6.27;53.81
59168;BME280;70412;55.048;73.268;2024-03-07T08:53:10;100454.34;;;-6.12;54.08
59168;BME280;70412;55.048;73.268;2024-03-07T08:56:13;100452.63;;;-6.06;53.67
59168;BME280;70412;55.048;73.268;2024-03-07T09:55:47;100452.41;;;-7.34;54.33
59168;BME280;70412;55.048;73.268;2024-03-07T09:58:52;100475.50;;;-6.71;53.90
59168;BME280;70412;55.048;73.268;2024-03-07T10:02:15;100479.78;;;-6.72;53.26
59168;BME280;70412;55.048;73.268;2024-03-07T10:05:18;100450.84;;;-7.01;53.94
59168;BME280;70412;55.048;73.268;2024-03-07T10:08:23;100483.22;;;-6.58;54.30
59168;BME280;70412;55.048;73.268;2024-03-07T10:11:26;100481.53;;;-6.54;54.09
59168;BME280;70412;55.048;73.268;2024-03-07T10:14:32;100479.81;;;-6.66;53.61
59168;BME280;70412;55.048;73.268;2024-03-07T10:17:35;100478.06;;;-6.76;53.98
59168;BME280;70412;55.048;73.268;2024-03-07T10:20:37;100452.59;;;-6.68;54.07
59168;BME280;70412;55.048;73.268;2024-03-07T10:23:41;100488.31;;;-6.55;53.27
59168;BME280;70412;55.048;73.268;2024-03-07T10:26:43;100500.28;;;-6.35;53.02
59168;BME280;70412;55.048;73.268;2024-03-07T10:30:06;100486.44;;;-7.20;52.70
59168;BME280;70412;55.048;73.268;2024-03-07T10:33:12;100486.28;;;-7.50;53.70
59168;BME280;70412;55.048;73.268;2024-03-07T10:39:37;100486.19;;;-7.62;54.17
59168;BME280;70412;55.048;73.268;2024-03-07T10:42:40;100456.38;;;-7.77;54.10
59168;BME280;70412;55.048;73.268;2024-03-07T10:45:45;100489.47;;;-7.82;53.37
59168;BME280;70412;55.048;73.268;2024-03-07T10:48:54;100459.50;;;-8.16;54.20
59168;BME280;70412;55.048;73.268;2024-03-07T10:52:12;100489.34;;;-7.95;54.30
59168;BME280;70412;55.048;73.268;2024-03-07T10:55:34;100494.47;;;-7.94;54.51
59168;BME280;70412;55.048;73.268;2024-03-07T10:59:07;100495.47;;;-7.72;54.62
59168;BME280;70412;55.048;73.268;2024-03-07T11:05:25;100488.72;;;-7.67;53.79
59168;BME280;70412;55.048;73.268;2024-03-07T11:08:28;100496.34;;;-7.72;53.50
59168;BME280;70412;55.048;73.268;2024-03-07T11:11:31;100499.69;;;-7.73;53.60
59168;BME280;70412;55.048;73.268;2024-03-07T11:14:34;100490.41;;;-7.69;53.24
59168;BME280;70412;55.048;73.268;2024-03-07T11:17:39;100495.44;;;-7.78;53.13
59168;BME280;70412;55.048;73.268;2024-03-07T11:20:41;100490.31;;;-7.80;53.08
59168;BME280;70412;55.048;73.268;2024-03-07T11:23:48;100487.78;;;-7.83;52.88
59168;BME280;70412;55.048;73.268;2024-03-07T11:26:57;100498.94;;;-7.62;52.46
59168;BME280;70412;55.048;73.268;2024-03-07T11:30:07;100498.09;;;-7.63;52.37
59168;BME280;70412;55.048;73.268;2024-03-07T11:33:11;100495.44;;;-7.78;51.99
59168;BME280;70412;55.048;73.268;2024-03-07T11:36:43;100494.56;;;-7.80;52.16
59168;BME280;70412;55.048;73.268;2024-03-07T11:39:48;100494.56;;;-7.79;52.11
59168;BME280;70412;55.048;73.268;2024-03-07T11:42:53;100496.72;;;-7.00;51.95
59168;BME280;70412;55.048;73.268;2024-03-07T11:45:56;100495.78;;;-4.82;49.00
59168;BME280;70412;55.048;73.268;2024-03-07T11:49:00;100488.69;;;-3.36;46.18
59168;BME280;70412;55.048;73.268;2024-03-07T11:52:06;100492.13;;;-2.64;43.71
59168;BME280;70412;55.048;73.268;2024-03-07T11:55:15;100491.28;;;-2.07;42.61
59168;BME280;70412;55.048;73.268;2024-03-07T11:58:21;100488.16;;;-1.72;42.33
59168;BME280;70412;55.048;73.268;2024-03-07T12:01:26;100464.88;;;-1.20;41.23
59168;BME280;70412;55.048;73.268;2024-03-07T12:04:29;100481.97;;;-1.16;40.45
59168;BME280;70412;55.048;73.268;2024-03-07T12:07:32;100484.78;;;-1.76;39.85
59168;BME280;70412;55.048;73.268;2024-03-07T12:10:36;100486.47;;;-2.29;40.36
59168;BME280;70412;55.048;73.268;2024-03-07T12:13:41;100489.88;;;-2.90;40.95
59168;BME280;70412;55.048;73.268;2024-03-07T12:16:44;100484.44;;;-3.34;41.20
59168;BME280;70412;55.048;73.268;2024-03-07T12:19:56;100460.44;;;-4.25;41.04
59168;BME280;70412;55.048;73.268;2024-03-07T12:23:09;100471.03;;;-4.77;42.02
59168;BME280;70412;55.048;73.268;2024-03-07T12:26:30;100494.25;;;-5.37;42.63
59168;BME280;70412;55.048;73.268;2024-03-07T12:29:32;100493.50;;;-5.94;43.51
59168;BME280;70412;55.048;73.268;2024-03-07T12:32:35;100498.44;;;-6.93;44.57
59168;BME280;70412;55.048;73.268;2024-03-07T12:35:38;100499.63;;;-7.85;46.33
59168;BME280;70412;55.048;73.268;2024-03-07T12:38:40;100489.09;;;-8.24;47.60
59168;BME280;70412;55.048;73.268;2024-03-07T12:41:44;100491.03;;;-8.89;48.62
59168;BME280;70412;55.048;73.268;2024-03-07T12:45:06;100500.84;;;-9.80;50.33
59168;BME280;70412;55.048;73.268;2024-03-07T12:48:09;100496.06;;;-10.62;52.26
59168;BME280;70412;55.048;73.268;2024-03-07T12:51:16;100487.13;;;-11.33;53.86
59168;BME280;70412;55.048;73.268;2024-03-07T12:54:19;100518.50;;;-11.64;55.30
59168;BME280;70412;55.048;73.268;2024-03-07T12:57:24;100520.16;;;-12.02;56.86
59168;BME280;70412;55.048;73.268;2024-03-07T13:00:26;100501.34;;;-12.46;57.36
59168;BME280;70412;55.048;73.268;2024-03-07T13:03:41;100524.53;;;-12.61;58.13
59168;BME280;70412;55.048;73.268;2024-03-07T13:06:46;100510.06;;;-12.99;58.64
59168;BME280;70412;55.048;73.268;2024-03-07T13:09:49;100534.34;;;-13.04;59.28
59168;BME280;70412;55.048;73.268;2024-03-07T13:12:52;100524.66;;;-13.19;59.84
59168;BME280;70412;55.048;73.268;2024-03-07T13:16:13;100508.53;;;-13.53;60.25
59168;BME280;70412;55.048;73.268;2024-03-07T13:19:16;100533.00;;;-13.50;60.93
59168;BME280;70412;55.048;73.268;2024-03-07T13:22:22;100538.50;;;-13.62;61.42
59168;BME280;70412;55.048;73.268;2024-03-07T13:25:27;100533.00;;;-13.77;62.03
59168;BME280;70412;55.048;73.268;2024-03-07T13:28:33;100535.13;;;-13.91;62.47
59168;BME280;70412;55.048;73.268;2024-03-07T13:31:36;100544.97;;;-13.97;63.63
59168;BME280;70412;55.048;73.268;2024-03-07T13:34:55;100548.00;;;-14.09;64.77
59168;BME280;70412;55.048;73.268;2024-03-07T13:37:57;100553.84;;;-14.10;65.19
59168;BME280;70412;55.048;73.268;2024-03-07T13:41:00;100556.88;;;-14.20;65.88
59168;BME280;70412;55.048;73.268;2024-03-07T13:44:06;100555.84;;;-14.26;66.10
59168;BME280;70412;55.048;73.268;2024-03-07T13:47:08;100552.13;;;-14.36;66.38
59168;BME280;70412;55.048;73.268;2024-03-07T13:50:11;100553.59;;;-14.43;66.72
59168;BME280;70412;55.048;73.268;2024-03-07T13:53:14;100537.63;;;-14.67;66.94
59168;BME280;70412;55.048;73.268;2024-03-07T14:24:32;100565.16;;;-14.95;70.67
59168;BME280;70412;55.048;73.268;2024-03-07T14:27:43;100571.56;;;-15.04;70.84
59168;BME280;70412;55.048;73.268;2024-03-07T14:30:54;100566.44;;;-15.07;71.92
59168;BME280;70412;55.048;73.268;2024-03-07T14:34:29;100571.06;;;-15.17;71.97
59168;BME280;70412;55.048;73.268;2024-03-07T14:40:52;100550.03;;;-15.43;72.91
59168;BME280;70412;55.048;73.268;2024-03-07T14:44:18;100556.94;;;-15.36;73.23
59168;BME280;70412;55.048;73.268;2024-03-07T14:47:21;100567.47;;;-15.46;73.34
59168;BME280;70412;55.048;73.268;2024-03-07T14:50:27;100544.63;;;-15.75;73.52
59168;BME280;70412;55.048;73.268;2024-03-07T14:53:31;100563.97;;;-15.72;74.47
59168;BME280;70412;55.048;73.268;2024-03-07T14:56:34;100554.34;;;-15.82;74.77
59168;BME280;70412;55.048;73.268;2024-03-07T14:59:37;100562.41;;;-15.91;75.42
59168;BME280;70412;55.048;73.268;2024-03-07T15:02:41;100566.25;;;-15.99;75.61
59168;BME280;70412;55.048;73.268;2024-03-07T15:05:44;100563.16;;;-16.13;75.71
59168;BME280;70412;55.048;73.268;2024-03-07T15:08:47;100557.72;;;-16.24;76.00
59168;BME280;70412;55.048;73.268;2024-03-07T15:11:51;100564.00;;;-16.33;76.14
59168;BME280;70412;55.048;73.268;2024-03-07T15:14:54;100531.16;;;-16.60;76.41
59168;BME280;70412;55.048;73.268;2024-03-07T15:17:58;100549.78;;;-16.54;76.75
59168;BME280;70412;55.048;73.268;2024-03-07T15:21:01;100553.94;;;-16.54;77.05
59168;BME280;70412;55.048;73.268;2024-03-07T15:24:04;100568.41;;;-16.48;77.20
59168;BME280;70412;55.048;73.268;2024-03-07T15:27:25;100558.97;;;-16.54;77.33
59168;BME280;70412;55.048;73.268;2024-03-07T15:30:28;100561.41;;;-16.56;77.68
59168;BME280;70412;55.048;73.268;2024-03-07T15:33:40;100565.50;;;-16.58;77.82
59168;BME280;70412;55.048;73.268;2024-03-07T15:36:59;100562.38;;;-16.52;78.12
59168;BME280;70412;55.048;73.268;2024-03-07T15:40:07;100534.03;;;-16.70;77.94
59168;BME280;70412;55.048;73.268;2024-03-07T15:43:19;100558.97;;;-16.54;78.12
59168;BME280;70412;55.048;73.268;2024-03-07T15:46:21;100549.41;;;-16.63;78.06
59168;BME280;70412;55.048;73.268;2024-03-07T15:49:24;100562.38;;;-16.52;78.65
59168;BME280;70412;55.048;73.268;2024-03-07T15:52:27;100560.94;;;-16.47;78.68
59168;BME280;70412;55.048;73.268;2024-03-07T15:55:30;100534.34;;;-16.63;78.90
59168;BME280;70412;55.048;73.268;2024-03-07T15:58:34;100561.53;;;-16.53;79.02
59168;BME280;70412;55.048;73.268;2024-03-07T16:01:39;100557.63;;;-16.46;79.51
59168;BME280;70412;55.048;73.268;2024-03-07T16:04:48;100542.13;;;-16.57;79.80
59168;BME280;70412;55.048;73.268;2024-03-07T16:07:51;100565.16;;;-16.46;80.08
59168;BME280;70412;55.048;73.268;2024-03-07T16:10:54;100567.47;;;-16.51;80.23
59168;BME280;70412;55.048;73.268;2024-03-07T16:13:57;100565.16;;;-16.46;80.58
59168;BME280;70412;55.048;73.268;2024-03-07T16:16:59;100564.22;;;-16.48;80.91
59168;BME280;70412;55.048;73.268;2024-03-07T16:20:02;100567.59;;;-16.47;81.23
59168;BME280;70412;55.048;73.268;2024-03-07T16:23:05;100560.47;;;-16.59;81.12
59168;BME280;70412;55.048;73.268;2024-03-07T16:26:07;100572.19;;;-16.58;81.39
59168;BME280;70412;55.048;73.268;2024-03-07T16:29:10;100567.28;;;-16.55;81.72
59168;BME280;70412;55.048;73.268;2024-03-07T16:32:15;100577.44;;;-16.52;81.95
59168;BME280;70412;55.048;73.268;2024-03-07T16:35:36;100580.63;;;-16.56;82.37
59168;BME280;70412;55.048;73.268;2024-03-07T16:38:39;100573.47;;;-16.68;82.05
59168;BME280;70412;55.048;73.268;2024-03-07T16:41:41;100575.59;;;-16.77;82.75
59168;BME280;70412;55.048;73.268;2024-03-07T16:44:47;100585.69;;;-16.75;83.16
59168;BME280;70412;55.048;73.268;2024-03-07T16:48:08;100592.16;;;-16.81;83.23
59168;BME280;70412;55.048;73.268;2024-03-07T16:51:13;100587.78;;;-16.85;83.49
59168;BME280;70412;55.048;73.268;2024-03-07T16:54:16;100584.22;;;-16.90;83.82
59168;BME280;70412;55.048;73.268;2024-03-07T16:57:19;100578.66;;;-17.02;83.60
59168;BME280;70412;55.048;73.268;2024-03-07T17:00:22;100593.84;;;-16.99;84.30
59168;BME280;70412;55.048;73.268;2024-03-07T17:03:31;100585.41;;;-17.01;84.50
59168;BME280;70412;55.048;73.268;2024-03-07T17:06:52;100587.13;;;-17.00;85.08
59168;BME280;70412;55.048;73.268;2024-03-07T17:09:57;100556.22;;;-17.18;85.53
59168;BME280;70412;55.048;73.268;2024-03-07T17:13:19;100593.00;;;-16.99;85.36
59168;BME280;70412;55.048;73.268;2024-03-07T17:16:23;100581.97;;;-17.03;85.57
59168;BME280;70412;55.048;73.268;2024-03-07T17:19:26;100585.00;;;-17.10;85.50
59168;BME280;70412;55.048;73.268;2024-03-07T17:22:28;100592.59;;;-17.08;86.07
59168;BME280;70412;55.048;73.268;2024-03-07T17:25:33;100593.59;;;-17.05;86.41
59168;BME280;70412;55.048;73.268;2024-03-07T17:28:37;100587.59;;;-17.08;86.41
59168;BME280;70412;55.048;73.268;2024-03-07T17:31:42;100592.53;;;-17.10;86.88
59168;BME280;70412;55.048;73.268;2024-03-07T17:34:48;100595.72;;;-17.13;86.98